KGAI

Montgomery County Airpark

Gaithersburg, Maryland, USA
METAR KGAI 161356Z AUTO 22005KT 10SM CLR 00/M06 A3013 RMK AO2 SLP234 T00001061 FZRANO
Observed Flight Rules
Dec-16 @ 13:56 UTC (43 minutes ago) Visual Flight Rules
Wind Visibility Clouds
220° at 5 knots 10 miles
  • Clear skies
Temperatures Readings
Current 0°C / 32°F
Dewpoint -6°C / 21°F
Humidity 64%
Altimeter 30.13" Hg
Pressure 1023.4 hPa
Elevation 165
METAR KGAI 161356Z AUTO 22005KT 10SM CLR 00/M06 A3013 RMK AO2 SLP234 T00001061 FZRANO
Observed Flight Rules
Dec-16 @ 13:56 UTC
(43 minutes ago)
VFR
Wind Visibility
220° at 5 knots 10 miles
Clouds
  • Clear skies
Temperature Dewpoint
0°C / 32°F -6°C / 21°F
Humidity Altimeter Pressure
64% 30.13" Hg 1023.4 hPa